Time;durP1;ratioP1;P1;durP2;ratioP2;P2;SDS_P1;SDS_P2;PMS_P1;PMS_P2;Temp;Humidity;BMP_temperature;BMP_pressure;BME280_temperature;BME280_humidity;BME280_pressure;Samples;Min_cycle;Max_cycle;Signal;HPM_P1;HPM_P2
2024/01/06 00:02:12;;;;;;;9.20;6.35;;;2.40;99.90;;;;;;4948502;28;20035;-87
2024/01/06 00:04:38;;;;;;;9.75;6.47;;;2.30;99.90;;;;;;4944298;29;20118;-86
2024/01/06 00:07:04;;;;;;;12.35;6.65;;;2.40;99.90;;;;;;4937236;29;20063;-88
2024/01/06 00:09:30;;;;;;;9.55;7.00;;;2.40;99.90;;;;;;4964025;28;20027;-86
2024/01/06 00:11:56;;;;;;;9.82;6.88;;;2.30;99.90;;;;;;4940622;28;20376;-86
2024/01/06 00:14:21;;;;;;;9.00;6.55;;;2.30;99.90;;;;;;4929852;28;20047;-86
2024/01/06 00:16:47;;;;;;;8.68;6.60;;;2.30;99.90;;;;;;4941889;28;20034;-85
2024/01/06 00:19:13;;;;;;;8.85;6.63;;;2.30;99.90;;;;;;4957629;28;20059;-86
2024/01/06 00:21:39;;;;;;;10.80;7.13;;;2.30;99.90;;;;;;4947384;28;20126;-85
2024/01/06 00:24:05;;;;;;;8.18;6.22;;;2.30;99.90;;;;;;4949253;28;20035;-86
2024/01/06 00:26:30;;;;;;;7.72;5.85;;;2.30;99.90;;;;;;4954832;28;20739;-89
2024/01/06 00:28:56;;;;;;;7.75;5.25;;;2.30;99.90;;;;;;4957922;28;20066;-87
2024/01/06 00:31:22;;;;;;;11.98;5.75;;;2.30;99.90;;;;;;4954384;28;20563;-87
2024/01/06 00:33:47;;;;;;;10.93;6.47;;;2.20;99.90;;;;;;4943246;29;20027;-87
2024/01/06 00:36:13;;;;;;;14.20;7.82;;;2.20;99.90;;;;;;4958427;28;20400;-87
2024/01/06 00:38:39;;;;;;;12.55;7.75;;;2.20;99.90;;;;;;4966812;28;20637;-87
2024/01/06 00:41:05;;;;;;;12.13;7.18;;;2.20;99.90;;;;;;4907025;28;20031;-87
2024/01/06 00:43:30;;;;;;;13.10;8.45;;;2.10;99.90;;;;;;4932005;28;20512;-87
2024/01/06 00:45:56;;;;;;;10.80;7.70;;;2.10;99.90;;;;;;4924690;29;20039;-87
2024/01/06 00:48:22;;;;;;;12.93;8.57;;;2.10;99.90;;;;;;4940744;29;20059;-88
2024/01/06 00:50:48;;;;;;;16.88;9.15;;;2.10;99.90;;;;;;4925129;28;20038;-87
2024/01/06 00:53:14;;;;;;;13.20;8.05;;;2.10;99.90;;;;;;4945082;29;20035;-87
2024/01/06 00:55:39;;;;;;;14.02;7.82;;;2.10;99.90;;;;;;4954432;28;20035;-87
2024/01/06 00:58:05;;;;;;;12.13;7.30;;;2.00;99.90;;;;;;4943077;29;20043;-87
2024/01/06 01:00:31;;;;;;;13.50;7.60;;;2.00;99.90;;;;;;4937711;29;20078;-87
2024/01/06 01:02:57;;;;;;;12.30;8.60;;;1.90;99.90;;;;;;4911636;29;20454;-87
2024/01/06 01:05:22;;;;;;;11.68;8.52;;;1.90;99.90;;;;;;4906106;29;20122;-87
2024/01/06 01:07:48;;;;;;;14.85;8.82;;;2.00;99.90;;;;;;4949520;28;20035;-87
2024/01/06 01:10:14;;;;;;;14.32;7.60;;;2.00;99.90;;;;;;4938121;28;20045;-87
2024/01/06 01:12:40;;;;;;;12.35;7.22;;;1.90;99.90;;;;;;4933788;28;20030;-87
2024/01/06 01:15:06;;;;;;;13.43;7.93;;;1.90;99.90;;;;;;4909027;28;20031;-86
2024/01/06 01:17:32;;;;;;;14.85;8.55;;;1.90;99.90;;;;;;4949228;28;20395;-87
2024/01/06 01:19:57;;;;;;;10.73;8.07;;;1.90;99.90;;;;;;4928797;29;20035;-87
2024/01/06 01:22:23;;;;;;;12.48;7.88;;;1.90;99.90;;;;;;4919067;29;20040;-88
2024/01/06 01:24:49;;;;;;;11.98;7.95;;;1.90;99.90;;;;;;4919691;28;20517;-87
2024/01/06 01:27:14;;;;;;;15.80;7.97;;;1.90;99.90;;;;;;4941429;28;20161;-87
2024/01/06 01:29:40;;;;;;;9.82;7.38;;;1.90;99.90;;;;;;4913923;29;20054;-87
2024/01/06 01:32:06;;;;;;;16.42;7.43;;;1.90;99.90;;;;;;4940440;28;20094;-87
2024/01/06 01:34:32;;;;;;;12.20;8.00;;;1.90;99.90;;;;;;4967917;28;20497;-87
2024/01/06 01:36:59;;;;;;;11.55;7.75;;;2.00;99.90;;;;;;4938776;28;20042;-87
2024/01/06 01:39:25;;;;;;;13.02;7.85;;;2.00;99.90;;;;;;4944996;29;20031;-87
2024/01/06 01:41:50;;;;;;;13.73;8.25;;;2.00;99.90;;;;;;4925684;28;20038;-88
2024/01/06 01:44:16;;;;;;;11.77;7.85;;;2.00;99.90;;;;;;4954079;28;20031;-87
2024/01/06 01:46:42;;;;;;;11.43;7.57;;;2.00;99.90;;;;;;4926364;28;20030;-86
2024/01/06 01:49:08;;;;;;;11.18;7.43;;;2.00;99.90;;;;;;4938121;29;20475;-87
2024/01/06 01:51:35;;;;;;;13.40;8.05;;;2.00;99.90;;;;;;4951935;28;20035;-87
2024/01/06 01:54:03;;;;;;;13.43;7.90;;;2.00;99.90;;;;;;4951027;28;20086;-86
2024/01/06 01:56:33;;;;;;;12.55;7.45;;;2.00;99.90;;;;;;4941878;29;20066;-86
2024/01/06 01:59:11;;;;;;;8.25;6.60;;;2.00;99.90;;;;;;4934273;28;20474;-87
2024/01/06 02:01:38;;;;;;;9.40;6.78;;;2.00;99.90;;;;;;4940511;29;20043;-86
2024/01/06 02:04:04;;;;;;;11.05;7.10;;;1.90;99.90;;;;;;4929659;28;20241;-87
2024/01/06 02:06:29;;;;;;;11.80;7.38;;;1.90;99.90;;;;;;4942430;28;20019;-87
2024/01/06 02:08:55;;;;;;;13.98;7.55;;;1.90;99.90;;;;;;4959342;28;20046;-88
2024/01/06 02:11:21;;;;;;;12.70;7.72;;;2.00;99.90;;;;;;4937779;29;20035;-86
2024/01/06 02:13:46;;;;;;;12.55;7.43;;;2.00;99.90;;;;;;4943101;28;20031;-87
2024/01/06 02:16:12;;;;;;;10.32;7.13;;;2.00;99.90;;;;;;4939095;28;20042;-86
2024/01/06 02:18:38;;;;;;;9.40;6.55;;;1.90;99.90;;;;;;4933151;29;20035;-86
2024/01/06 02:21:06;;;;;;;10.73;7.18;;;2.00;99.90;;;;;;4934152;28;20079;-88
2024/01/06 02:23:35;;;;;;;13.27;6.97;;;2.00;99.90;;;;;;4951837;28;20039;-87
2024/01/06 02:26:01;;;;;;;9.18;6.25;;;2.00;99.90;;;;;;4944118;28;20039;-86
2024/01/06 02:28:27;;;;;;;8.75;6.05;;;2.00;99.90;;;;;;4946917;28;20055;-87
2024/01/06 02:30:53;;;;;;;12.63;7.57;;;2.00;99.90;;;;;;4946753;28;20399;-86
2024/01/06 02:33:19;;;;;;;9.30;6.25;;;2.00;99.90;;;;;;4941023;29;20041;-86
2024/01/06 02:35:48;;;;;;;11.38;6.57;;;2.00;99.90;;;;;;4943813;28;20034;-86
2024/01/06 02:38:13;;;;;;;11.88;7.32;;;2.00;99.90;;;;;;4945299;28;20881;-87
2024/01/06 02:40:39;;;;;;;10.57;6.70;;;2.00;99.90;;;;;;4959826;28;20039;-86
2024/01/06 02:43:05;;;;;;;7.82;6.15;;;2.00;99.90;;;;;;4944453;28;20066;-86
2024/01/06 02:45:31;;;;;;;9.60;6.32;;;2.00;99.90;;;;;;4927864;28;20122;-88
2024/01/06 02:47:56;;;;;;;8.63;6.32;;;2.00;99.90;;;;;;4950119;28;20023;-86
2024/01/06 02:50:22;;;;;;;8.75;5.90;;;2.00;99.90;;;;;;4941219;28;20465;-87
2024/01/06 02:52:48;;;;;;;8.25;6.18;;;1.90;99.90;;;;;;4944838;28;20030;-87
2024/01/06 02:55:14;;;;;;;8.93;5.95;;;2.00;99.90;;;;;;4955394;28;20024;-87
2024/01/06 02:57:40;;;;;;;9.15;6.10;;;2.00;99.90;;;;;;4957798;28;20435;-86
2024/01/06 03:00:07;;;;;;;9.80;6.32;;;2.00;99.90;;;;;;4947879;28;20030;-87
2024/01/06 03:02:35;;;;;;;9.32;6.10;;;2.00;99.90;;;;;;4947903;28;20069;-87
2024/01/06 03:05:01;;;;;;;11.13;5.55;;;2.00;99.90;;;;;;4924174;28;20383;-87
2024/01/06 03:07:27;;;;;;;10.60;6.25;;;2.00;99.90;;;;;;4961671;28;20388;-87
2024/01/06 03:09:53;;;;;;;11.15;6.38;;;2.00;99.90;;;;;;4948198;28;20054;-88
2024/01/06 03:12:18;;;;;;;10.40;6.22;;;2.00;99.90;;;;;;4960497;28;20484;-86
2024/01/06 03:14:44;;;;;;;7.25;5.45;;;2.00;99.90;;;;;;4933906;28;20027;-87
2024/01/06 03:17:10;;;;;;;8.55;5.93;;;2.00;99.90;;;;;;4954724;28;20027;-85
2024/01/06 03:19:36;;;;;;;8.77;6.05;;;2.10;99.90;;;;;;4949391;28;20407;-86
2024/01/06 03:22:02;;;;;;;9.68;6.15;;;2.10;99.90;;;;;;4959814;28;20050;-86
2024/01/06 03:24:28;;;;;;;10.52;6.18;;;2.10;99.90;;;;;;4942376;29;20418;-85
2024/01/06 03:26:54;;;;;;;8.85;5.68;;;2.10;99.90;;;;;;4963619;28;20031;-87
2024/01/06 03:29:20;;;;;;;10.43;6.10;;;2.20;99.90;;;;;;4944348;28;20031;-87
2024/01/06 03:31:46;;;;;;;7.45;5.75;;;2.20;99.90;;;;;;4932015;29;20148;-87
2024/01/06 03:34:12;;;;;;;7.95;5.35;;;2.20;99.90;;;;;;4936413;29;20139;-88
2024/01/06 03:36:39;;;;;;;11.73;5.80;;;2.30;99.90;;;;;;4934835;29;20043;-87
2024/01/06 03:39:05;;;;;;;11.27;5.53;;;2.30;99.90;;;;;;4942393;28;20053;-87
2024/01/06 03:41:30;;;;;;;10.05;5.05;;;2.30;99.90;;;;;;4947774;28;20054;-87
2024/01/06 03:43:56;;;;;;;7.95;5.55;;;2.30;99.90;;;;;;4922433;28;20027;-87
2024/01/06 03:46:23;;;;;;;10.15;5.40;;;2.30;99.90;;;;;;4929774;29;20646;-87
2024/01/06 03:48:49;;;;;;;10.55;5.68;;;2.30;99.90;;;;;;4928110;29;20031;-88
2024/01/06 03:51:15;;;;;;;8.13;4.75;;;2.30;99.90;;;;;;4936039;29;20042;-87
2024/01/06 03:53:40;;;;;;;11.85;5.95;;;2.30;99.90;;;;;;4951350;28;20086;-87
2024/01/06 03:56:07;;;;;;;8.85;5.88;;;2.30;99.90;;;;;;4972114;28;20077;-87
2024/01/06 03:58:33;;;;;;;8.63;5.25;;;2.30;99.90;;;;;;4957199;28;20038;-87
2024/01/06 04:00:59;;;;;;;8.05;5.65;;;2.30;99.90;;;;;;4963696;28;20502;-87
2024/01/06 04:03:25;;;;;;;11.25;5.40;;;2.30;99.90;;;;;;4945481;29;20042;-87
2024/01/06 04:05:50;;;;;;;7.20;5.05;;;2.30;99.90;;;;;;4936960;29;20039;-87
2024/01/06 04:08:17;;;;;;;7.38;5.38;;;2.30;99.90;;;;;;4939170;29;20094;-87
2024/01/06 04:10:43;;;;;;;7.15;4.70;;;2.30;99.90;;;;;;4929913;29;20031;-87
2024/01/06 04:13:10;;;;;;;6.97;4.93;;;2.30;99.90;;;;;;4958044;28;20038;-88
2024/01/06 04:15:36;;;;;;;11.70;4.97;;;2.30;99.90;;;;;;4924611;29;20098;-87
2024/01/06 04:18:03;;;;;;;9.05;5.57;;;2.30;99.90;;;;;;4925259;28;20035;-87
2024/01/06 04:20:29;;;;;;;10.43;5.35;;;2.30;99.90;;;;;;4948204;28;20035;-87
2024/01/06 04:22:55;;;;;;;7.25;5.32;;;2.30;99.90;;;;;;4925265;29;20038;-87
2024/01/06 04:25:21;;;;;;;8.52;5.72;;;2.30;99.90;;;;;;4946742;29;20027;-87
2024/01/06 04:27:48;;;;;;;9.55;5.40;;;2.30;99.90;;;;;;4949978;28;20039;-88
2024/01/06 04:30:14;;;;;;;9.98;5.78;;;2.30;99.90;;;;;;4942944;28;20123;-87
2024/01/06 04:32:41;;;;;;;8.10;5.80;;;2.30;99.90;;;;;;4954699;29;20046;-87
2024/01/06 04:35:07;;;;;;;10.07;5.72;;;2.30;99.90;;;;;;4940956;28;20066;-87
2024/01/06 04:37:33;;;;;;;9.02;5.05;;;2.30;99.90;;;;;;4945257;28;20134;-87
2024/01/06 04:39:59;;;;;;;7.57;4.90;;;2.30;99.90;;;;;;4935183;28;20125;-87
2024/01/06 04:42:25;;;;;;;9.35;5.95;;;2.30;99.90;;;;;;4958885;28;20035;-87
2024/01/06 04:44:51;;;;;;;9.43;5.20;;;2.30;99.90;;;;;;4951076;28;20130;-87
2024/01/06 04:47:17;;;;;;;6.75;5.13;;;2.30;99.90;;;;;;4927398;29;20046;-87
2024/01/06 04:49:44;;;;;;;8.93;5.75;;;2.20;99.90;;;;;;4944742;28;20039;-87
2024/01/06 04:52:10;;;;;;;9.30;5.47;;;2.20;99.90;;;;;;4935976;28;20030;-87
2024/01/06 04:54:36;;;;;;;7.55;5.18;;;2.10;99.90;;;;;;4949723;28;20031;-87
2024/01/06 04:57:02;;;;;;;11.02;6.13;;;2.20;99.90;;;;;;4928564;28;20027;-87
2024/01/06 04:59:28;;;;;;;9.25;6.35;;;2.10;99.90;;;;;;4948498;29;20126;-87
2024/01/06 05:01:54;;;;;;;10.02;5.57;;;2.10;99.90;;;;;;4937999;28;20143;-87
2024/01/06 05:04:19;;;;;;;11.38;6.45;;;2.10;99.90;;;;;;4949049;28;20023;-87
2024/01/06 05:06:45;;;;;;;12.18;6.28;;;2.10;99.90;;;;;;4937681;28;20034;-87
2024/01/06 05:09:11;;;;;;;9.68;6.32;;;2.10;99.90;;;;;;4933380;28;20512;-87
2024/01/06 05:11:37;;;;;;;11.02;6.18;;;2.10;99.90;;;;;;4924772;29;20038;-87
2024/01/06 05:14:02;;;;;;;10.52;7.25;;;2.10;99.90;;;;;;4931648;29;20504;-88
2024/01/06 05:16:28;;;;;;;11.32;7.28;;;2.10;99.90;;;;;;4938229;28;20027;-87
2024/01/06 05:18:54;;;;;;;13.18;7.22;;;2.10;99.90;;;;;;4945068;29;20435;-87
2024/01/06 05:21:20;;;;;;;14.70;8.05;;;2.10;99.90;;;;;;4918279;28;20031;-87
2024/01/06 05:23:46;;;;;;;12.27;7.28;;;2.10;99.90;;;;;;4921708;29;20391;-87
2024/01/06 05:26:13;;;;;;;11.25;7.25;;;2.10;99.90;;;;;;4923171;29;20031;-87
2024/01/06 05:28:40;;;;;;;10.63;6.85;;;2.10;99.90;;;;;;4929569;29;20059;-87
2024/01/06 05:31:06;;;;;;;11.43;7.45;;;2.00;99.90;;;;;;4958315;28;20036;-87
2024/01/06 05:33:32;;;;;;;8.77;7.00;;;2.00;99.90;;;;;;4929582;29;20098;-87
2024/01/06 05:35:57;;;;;;;10.52;7.32;;;2.00;99.90;;;;;;4923005;29;20130;-87
2024/01/06 05:38:23;;;;;;;12.80;7.93;;;2.00;99.90;;;;;;4951527;28;20042;-88
2024/01/06 05:40:49;;;;;;;12.25;7.65;;;2.00;99.90;;;;;;4928936;29;20036;-87
2024/01/06 05:43:15;;;;;;;11.25;7.50;;;2.00;99.90;;;;;;4928094;29;20142;-87
2024/01/06 05:45:43;;;;;;;16.02;7.97;;;2.00;99.90;;;;;;4944175;28;20043;-87
2024/01/06 05:48:10;;;;;;;9.68;7.15;;;2.00;99.90;;;;;;4964410;28;20019;-87
2024/01/06 05:50:39;;;;;;;11.13;7.50;;;2.00;99.90;;;;;;4951113;29;20020;-87
2024/01/06 05:53:05;;;;;;;10.13;7.47;;;2.00;99.90;;;;;;4956391;28;20023;-87
2024/01/06 05:55:30;;;;;;;14.27;8.35;;;2.00;99.90;;;;;;4953986;28;20078;-87
2024/01/06 05:57:56;;;;;;;12.55;7.25;;;2.00;99.90;;;;;;4931466;29;20174;-87
2024/01/06 06:00:22;;;;;;;11.48;7.57;;;2.00;99.90;;;;;;4938241;28;20035;-88
2024/01/06 06:02:48;;;;;;;13.55;7.85;;;1.90;99.90;;;;;;4932244;28;20171;-87
2024/01/06 06:05:14;;;;;;;11.38;7.40;;;1.90;99.90;;;;;;4925998;29;20042;-87
2024/01/06 06:07:40;;;;;;;15.23;8.63;;;1.90;99.90;;;;;;4960646;28;20039;-87
2024/01/06 06:10:10;;;;;;;11.75;8.38;;;1.90;99.90;;;;;;4921129;29;20043;-88
2024/01/06 06:12:37;;;;;;;13.95;8.27;;;1.80;99.90;;;;;;4962750;28;20481;-87
2024/01/06 06:15:04;;;;;;;12.52;7.97;;;1.80;99.90;;;;;;4936133;28;20396;-87
2024/01/06 06:17:31;;;;;;;11.57;8.15;;;1.80;99.90;;;;;;4946699;28;20121;-87
2024/01/06 06:19:57;;;;;;;9.90;7.13;;;1.70;99.90;;;;;;4920824;29;20031;-88
2024/01/06 06:22:26;;;;;;;11.18;7.10;;;1.70;99.90;;;;;;4954642;28;20039;-87
2024/01/06 06:24:52;;;;;;;13.68;7.82;;;1.70;99.90;;;;;;4953958;28;20090;-88
2024/01/06 06:27:18;;;;;;;11.07;6.95;;;1.70;99.90;;;;;;4906583;29;20102;-88
2024/01/06 06:29:44;;;;;;;10.57;7.28;;;1.60;99.90;;;;;;4961398;28;20039;-88
2024/01/06 06:32:09;;;;;;;9.75;7.20;;;1.60;99.90;;;;;;4917625;29;20035;-87
2024/01/06 06:34:35;;;;;;;12.75;7.47;;;1.50;99.90;;;;;;4932353;28;20039;-87
2024/01/06 06:37:01;;;;;;;11.13;7.75;;;1.50;99.90;;;;;;4952003;28;20069;-87
2024/01/06 06:39:27;;;;;;;10.63;8.20;;;1.50;99.90;;;;;;4924181;28;20035;-88
2024/01/06 06:41:52;;;;;;;13.23;7.93;;;1.50;99.90;;;;;;4945553;28;20491;-87
2024/01/06 06:44:18;;;;;;;12.70;7.75;;;1.50;99.90;;;;;;4941352;28;20759;-88
2024/01/06 06:46:44;;;;;;;13.63;7.80;;;1.50;99.90;;;;;;4929014;29;20389;-87
2024/01/06 06:49:10;;;;;;;11.88;8.43;;;1.40;99.90;;;;;;4949175;28;20043;-87
2024/01/06 06:51:36;;;;;;;13.40;8.68;;;1.40;99.90;;;;;;4930430;28;20122;-87
2024/01/06 06:54:01;;;;;;;14.57;9.10;;;1.40;99.90;;;;;;4946072;29;20039;-87
2024/01/06 06:56:27;;;;;;;15.73;9.45;;;1.40;99.90;;;;;;4924077;29;20503;-88
2024/01/06 06:58:53;;;;;;;11.65;8.15;;;1.30;99.90;;;;;;4936575;29;20110;-87
2024/01/06 07:01:19;;;;;;;12.40;8.88;;;1.30;99.90;;;;;;4937403;29;20063;-87
2024/01/06 07:03:45;;;;;;;15.23;8.07;;;1.20;99.90;;;;;;4945003;29;20043;-88
2024/01/06 07:06:14;;;;;;;15.07;8.18;;;1.20;99.90;;;;;;4952274;28;20039;-87
2024/01/06 07:08:41;;;;;;;12.88;8.88;;;1.20;99.90;;;;;;4960401;28;20032;-88
2024/01/06 07:11:08;;;;;;;15.30;8.70;;;1.20;99.90;;;;;;4908170;29;20035;-87
2024/01/06 07:13:34;;;;;;;14.40;7.63;;;1.10;99.90;;;;;;4949568;28;20118;-87
2024/01/06 07:16:00;;;;;;;12.10;8.10;;;1.10;99.90;;;;;;4909289;28;20119;-88
2024/01/06 07:18:26;;;;;;;11.10;7.78;;;1.10;99.90;;;;;;4950712;28;20066;-88
2024/01/06 07:20:51;;;;;;;14.55;8.20;;;1.10;99.90;;;;;;4942182;28;20043;-87
2024/01/06 07:23:17;;;;;;;13.88;8.25;;;1.10;99.90;;;;;;4926311;29;20039;-87
2024/01/06 07:25:43;;;;;;;16.60;8.73;;;1.00;99.90;;;;;;4931743;29;20046;-86
2024/01/06 07:28:09;;;;;;;13.65;8.63;;;1.00;99.90;;;;;;4923430;29;20028;-87
2024/01/06 07:30:34;;;;;;;12.23;8.50;;;1.00;99.90;;;;;;4923721;29;20035;-88
2024/01/06 07:33:00;;;;;;;14.98;9.40;;;1.00;99.90;;;;;;4957584;28;20031;-87
2024/01/06 07:35:26;;;;;;;14.95;8.77;;;1.00;99.90;;;;;;4951361;28;20027;-87
2024/01/06 07:37:53;;;;;;;14.05;8.68;;;1.00;99.90;;;;;;4943622;28;20554;-87
2024/01/06 07:40:19;;;;;;;13.60;8.55;;;1.00;99.90;;;;;;4926568;29;20031;-87
2024/01/06 07:42:45;;;;;;;13.82;8.98;;;1.00;99.90;;;;;;4955982;28;20039;-87
2024/01/06 07:45:12;;;;;;;12.40;9.07;;;1.10;99.90;;;;;;4945827;28;20046;-88
2024/01/06 07:47:38;;;;;;;12.93;8.98;;;1.10;99.90;;;;;;4937892;28;20043;-87
2024/01/06 07:50:05;;;;;;;11.68;8.70;;;1.10;99.90;;;;;;4933380;28;20029;-87
2024/01/06 07:52:30;;;;;;;11.10;7.90;;;1.10;99.90;;;;;;4939731;29;20114;-87
2024/01/06 07:54:56;;;;;;;11.73;8.35;;;1.10;99.90;;;;;;4927679;28;20506;-87
2024/01/06 07:57:22;;;;;;;11.80;7.82;;;1.10;99.90;;;;;;4907731;29;20388;-87
2024/01/06 07:59:48;;;;;;;10.82;7.80;;;1.20;99.90;;;;;;4911199;29;20125;-87
2024/01/06 08:02:13;;;;;;;14.27;8.40;;;1.20;99.90;;;;;;4936958;28;20036;-87
2024/01/06 08:04:39;;;;;;;10.20;7.78;;;1.30;99.90;;;;;;4942185;29;20031;-87
2024/01/06 08:07:05;;;;;;;10.10;7.10;;;1.30;99.90;;;;;;4951669;28;20404;-87
2024/01/06 08:09:31;;;;;;;11.48;8.52;;;1.40;99.90;;;;;;4947381;29;20034;-86
2024/01/06 08:11:57;;;;;;;12.27;9.25;;;1.40;99.90;;;;;;4928249;29;20032;-87
2024/01/06 08:14:22;;;;;;;13.13;8.50;;;1.40;99.90;;;;;;4949699;28;20598;-86
2024/01/06 08:16:48;;;;;;;10.00;6.70;;;1.40;99.90;;;;;;4939281;29;20039;-88
2024/01/06 08:19:14;;;;;;;13.75;7.78;;;1.50;99.90;;;;;;4926134;29;20395;-88
2024/01/06 08:21:40;;;;;;;11.93;7.88;;;1.50;99.90;;;;;;4955056;29;20094;-87
2024/01/06 08:24:06;;;;;;;10.32;7.40;;;1.60;99.90;;;;;;4927346;29;20087;-88
2024/01/06 08:26:32;;;;;;;12.02;7.60;;;1.60;99.90;;;;;;4922976;29;20043;-87
2024/01/06 08:28:58;;;;;;;10.30;7.13;;;1.60;99.90;;;;;;4948102;28;20036;-88
2024/01/06 08:31:23;;;;;;;10.88;7.10;;;1.60;99.90;;;;;;4907289;29;20036;-88
2024/01/06 08:33:49;;;;;;;9.48;6.88;;;1.70;99.90;;;;;;4939528;29;20046;-87
2024/01/06 08:36:15;;;;;;;9.68;6.85;;;1.70;99.90;;;;;;4922919;29;20028;-87
2024/01/06 08:38:41;;;;;;;10.23;7.55;;;1.70;99.90;;;;;;4938635;29;20036;-86
2024/01/06 08:41:07;;;;;;;12.85;7.22;;;1.80;99.90;;;;;;4938988;29;20184;-87
2024/01/06 08:43:33;;;;;;;11.77;7.57;;;1.80;99.90;;;;;;4913373;29;20043;-87
2024/01/06 08:45:59;;;;;;;10.38;7.13;;;1.80;99.90;;;;;;4953133;29;20061;-87
2024/01/06 08:48:25;;;;;;;11.57;7.57;;;1.80;99.90;;;;;;4948312;28;20034;-87
2024/01/06 08:50:50;;;;;;;8.93;6.75;;;1.80;99.90;;;;;;4940801;29;20031;-87
2024/01/06 08:53:17;;;;;;;11.00;6.78;;;1.90;99.90;;;;;;4939480;28;20058;-86
2024/01/06 08:55:42;;;;;;;11.48;7.75;;;1.90;99.90;;;;;;4938368;29;20039;-88
2024/01/06 08:58:08;;;;;;;10.15;7.55;;;2.00;99.90;;;;;;4938681;29;20535;-87
2024/01/06 09:00:34;;;;;;;11.55;8.30;;;2.10;99.90;;;;;;4938421;29;20036;-88
2024/01/06 09:03:00;;;;;;;12.05;8.40;;;2.10;99.90;;;;;;4922604;29;20035;-87
2024/01/06 09:05:26;;;;;;;13.00;7.50;;;2.10;99.90;;;;;;4922616;29;20074;-87
2024/01/06 09:07:51;;;;;;;12.30;8.52;;;2.10;99.90;;;;;;4933827;28;20121;-87
2024/01/06 09:10:18;;;;;;;13.60;8.60;;;2.20;99.90;;;;;;4962390;28;20030;-87
2024/01/06 09:12:43;;;;;;;15.80;9.18;;;2.20;99.90;;;;;;4936661;28;20035;-86
2024/01/06 09:15:09;;;;;;;13.13;9.82;;;2.20;99.90;;;;;;4944643;28;20025;-85
2024/01/06 09:17:35;;;;;;;14.60;9.88;;;2.30;99.90;;;;;;4954938;28;20035;-85
2024/01/06 09:20:01;;;;;;;18.27;10.38;;;2.30;99.90;;;;;;4928169;28;20027;-86
2024/01/06 09:22:27;;;;;;;14.93;9.90;;;2.30;99.90;;;;;;4939321;28;20562;-86
2024/01/06 09:24:53;;;;;;;21.83;14.93;;;2.40;99.90;;;;;;4944603;28;20034;-85
2024/01/06 09:27:19;;;;;;;26.13;16.80;;;2.40;99.90;;;;;;4922451;29;20440;-87
2024/01/06 09:29:45;;;;;;;23.45;16.05;;;2.50;99.90;;;;;;4953149;29;20039;-88
2024/01/06 09:32:12;;;;;;;30.35;17.50;;;2.50;99.90;;;;;;4922126;29;20082;-88
2024/01/06 09:34:38;;;;;;;25.23;15.77;;;2.50;99.90;;;;;;4954248;28;20035;-88
2024/01/06 09:37:04;;;;;;;28.52;16.65;;;2.50;99.90;;;;;;4936762;28;20085;-87
2024/01/06 09:39:31;;;;;;;27.27;17.20;;;2.50;99.90;;;;;;4940724;29;20034;-86
2024/01/06 09:41:57;;;;;;;18.95;12.73;;;2.50;99.90;;;;;;4960016;28;20041;-86
2024/01/06 09:44:24;;;;;;;12.98;8.80;;;2.60;99.90;;;;;;4951117;29;20042;-87
2024/01/06 09:46:50;;;;;;;10.07;6.97;;;2.60;99.90;;;;;;4946624;28;20039;-87
2024/01/06 09:49:23;;;;;;;10.48;7.32;;;2.70;99.90;;;;;;4937363;29;20038;-87
2024/01/06 09:51:51;;;;;;;9.95;6.57;;;2.70;99.90;;;;;;4966461;28;20046;-87
2024/01/06 09:54:38;;;;;;;13.00;7.15;;;2.70;99.90;;;;;;4955943;29;20039;-87
2024/01/06 09:57:06;;;;;;;10.90;7.75;;;2.70;99.90;;;;;;4939598;28;20480;-85
2024/01/06 09:59:34;;;;;;;11.60;7.65;;;2.80;99.90;;;;;;4928418;29;20063;-87
2024/01/06 10:02:01;;;;;;;10.25;7.18;;;2.80;99.90;;;;;;4956260;28;20050;-85
2024/01/06 10:04:27;;;;;;;9.75;6.70;;;2.80;99.90;;;;;;4919870;29;20034;-87
2024/01/06 10:07:13;;;;;;;12.40;7.03;;;2.80;99.90;;;;;;4939679;28;20122;-88
2024/01/06 10:09:41;;;;;;;13.50;8.55;;;2.90;99.90;;;;;;4946942;28;20448;-86
2024/01/06 10:12:07;;;;;;;11.32;7.82;;;2.90;99.90;;;;;;4963539;28;20015;-86
2024/01/06 10:14:33;;;;;;;11.55;7.40;;;2.90;99.90;;;;;;4944420;28;21298;-86
2024/01/06 10:17:05;;;;;;;12.68;8.00;;;3.00;99.90;;;;;;4942777;28;20054;-88
2024/01/06 10:19:31;;;;;;;11.60;7.22;;;3.00;99.90;;;;;;4959433;28;20054;-87
2024/01/06 10:22:00;;;;;;;10.60;7.28;;;3.10;99.90;;;;;;4921522;28;20484;-86
2024/01/06 10:24:26;;;;;;;9.90;7.00;;;3.20;99.90;;;;;;4950750;28;20097;-88
2024/01/06 10:26:52;;;;;;;13.95;7.88;;;3.20;99.90;;;;;;4936096;28;20118;-86
2024/01/06 10:29:17;;;;;;;10.60;7.95;;;3.30;99.90;;;;;;4934746;29;20070;-86
2024/01/06 10:31:43;;;;;;;14.32;8.10;;;3.30;99.90;;;;;;4940996;28;20035;-87
2024/01/06 10:34:09;;;;;;;11.45;7.68;;;3.40;99.90;;;;;;4939813;28;20154;-87
2024/01/06 10:36:36;;;;;;;12.82;8.05;;;3.40;99.90;;;;;;4921375;28;20412;-86
2024/01/06 10:39:03;;;;;;;14.23;9.02;;;3.50;99.90;;;;;;4956198;28;20031;-88
2024/01/06 10:41:30;;;;;;;15.00;9.63;;;3.60;99.90;;;;;;4943208;28;20027;-87
2024/01/06 10:44:01;;;;;;;16.27;9.95;;;3.60;99.90;;;;;;4935463;28;20027;-88
2024/01/06 10:46:27;;;;;;;14.77;8.80;;;3.70;99.90;;;;;;4951745;28;20038;-86
2024/01/06 10:48:58;;;;;;;13.73;8.48;;;3.80;99.90;;;;;;4941245;28;20087;-87
2024/01/06 10:51:26;;;;;;;13.60;8.02;;;3.80;99.90;;;;;;4938686;29;20027;-86
2024/01/06 10:53:53;;;;;;;13.85;8.50;;;3.90;99.90;;;;;;4939546;29;20051;-87
2024/01/06 10:56:20;;;;;;;15.55;8.85;;;4.00;99.90;;;;;;4954678;28;20035;-88
2024/01/06 10:58:49;;;;;;;16.55;8.55;;;4.00;99.90;;;;;;4945884;28;20928;-86
2024/01/06 11:01:20;;;;;;;13.18;8.05;;;4.10;99.90;;;;;;4938010;28;20019;-87
2024/01/06 11:03:47;;;;;;;11.35;8.00;;;4.20;99.90;;;;;;4957426;28;20062;-87
2024/01/06 11:06:13;;;;;;;12.98;7.80;;;4.20;99.90;;;;;;4945210;28;20106;-87
2024/01/06 11:09:09;;;;;;;11.13;7.82;;;4.20;99.90;;;;;;4930271;28;20028;-87
2024/01/06 11:11:37;;;;;;;12.00;7.35;;;4.20;99.90;;;;;;4966697;28;20043;-87
2024/01/06 11:14:27;;;;;;;11.38;7.38;;;4.20;99.90;;;;;;4945561;28;20111;-88
2024/01/06 11:16:56;;;;;;;11.05;7.15;;;4.30;99.90;;;;;;4940540;28;20118;-86
2024/01/06 11:19:35;;;;;;;11.63;6.55;;;4.30;99.90;;;;;;4961859;28;20986;-86
2024/01/06 11:22:20;;;;;;;13.13;7.03;;;4.30;99.90;;;;;;4944677;28;20045;-87
2024/01/06 11:24:54;;;;;;;10.38;6.50;;;4.30;99.90;;;;;;4943434;29;20137;-86
2024/01/06 11:27:30;;;;;;;9.88;6.57;;;4.40;99.90;;;;;;4939200;29;20039;-87
2024/01/06 11:30:00;;;;;;;11.30;6.28;;;4.40;99.90;;;;;;4947892;29;20031;-87
2024/01/06 11:32:36;;;;;;;7.97;5.40;;;4.50;99.90;;;;;;4924651;29;20031;-87
2024/01/06 11:35:12;;;;;;;9.60;5.35;;;4.50;99.90;;;;;;4946472;29;20118;-87
2024/01/06 11:37:41;;;;;;;8.82;5.88;;;4.50;99.90;;;;;;4949892;28;20447;-87
2024/01/06 11:40:15;;;;;;;10.20;5.00;;;4.60;99.90;;;;;;4962404;28;20056;-87
2024/01/06 11:42:42;;;;;;;6.90;4.80;;;4.60;99.90;;;;;;4924510;29;20392;-89
2024/01/06 11:45:08;;;;;;;6.60;4.30;;;4.60;99.90;;;;;;4924617;28;20048;-88
2024/01/06 11:47:35;;;;;;;8.05;4.38;;;4.70;99.90;;;;;;4940322;29;20039;-88
2024/01/06 11:50:04;;;;;;;8.50;4.75;;;4.80;99.90;;;;;;4963417;28;20068;-88
2024/01/06 11:52:34;;;;;;;8.30;4.30;;;4.80;99.90;;;;;;4941292;29;20501;-88
2024/01/06 11:55:00;;;;;;;5.80;4.10;;;4.80;99.90;;;;;;4941056;28;20031;-88
2024/01/06 11:57:29;;;;;;;5.88;4.20;;;4.90;99.90;;;;;;4949788;28;20090;-88
2024/01/06 11:59:55;;;;;;;6.07;4.20;;;4.90;99.90;;;;;;4955939;28;20037;-88
2024/01/06 12:02:24;;;;;;;8.02;3.80;;;5.00;99.90;;;;;;4930691;29;20036;-87
2024/01/06 12:04:53;;;;;;;7.32;3.33;;;5.10;99.90;;;;;;4927923;28;20079;-86
2024/01/06 12:07:22;;;;;;;3.97;3.22;;;5.10;99.90;;;;;;4943969;28;20049;-88
2024/01/06 12:09:48;;;;;;;11.07;3.67;;;5.10;99.90;;;;;;4951660;28;20130;-88
2024/01/06 12:12:18;;;;;;;9.23;3.47;;;5.10;99.90;;;;;;4959944;28;20114;-88
2024/01/06 12:14:45;;;;;;;6.60;3.17;;;5.10;99.90;;;;;;4936086;28;20065;-87
2024/01/06 12:17:13;;;;;;;5.80;3.25;;;5.10;99.90;;;;;;4929212;28;20023;-87
2024/01/06 12:19:41;;;;;;;5.82;2.67;;;5.10;99.90;;;;;;4939884;29;20455;-88
2024/01/06 12:22:09;;;;;;;6.07;3.22;;;5.00;99.90;;;;;;4940254;29;20042;-88
2024/01/06 12:24:36;;;;;;;5.65;3.35;;;5.10;99.90;;;;;;4924142;29;20384;-88
2024/01/06 12:27:01;;;;;;;7.75;2.75;;;5.00;99.90;;;;;;4924023;29;20031;-89
2024/01/06 12:29:28;;;;;;;3.13;2.45;;;5.10;99.90;;;;;;4908316;29;20074;-87
2024/01/06 12:31:55;;;;;;;4.30;2.33;;;5.10;99.90;;;;;;4955579;29;20117;-88
2024/01/06 12:34:22;;;;;;;3.78;2.60;;;5.10;99.90;;;;;;4923999;29;20041;-88
2024/01/06 12:36:48;;;;;;;5.68;2.60;;;5.10;99.90;;;;;;4925348;28;20067;-87
2024/01/06 12:39:13;;;;;;;9.30;2.33;;;5.10;99.90;;;;;;4944483;29;20046;-87
2024/01/06 12:41:42;;;;;;;3.47;2.15;;;5.10;99.90;;;;;;4940817;28;20039;-87
2024/01/06 12:44:09;;;;;;;5.75;2.33;;;5.10;99.90;;;;;;4937837;28;20042;-86
2024/01/06 12:46:35;;;;;;;6.32;2.30;;;5.10;99.90;;;;;;4930062;28;20101;-87
2024/01/06 12:49:02;;;;;;;6.68;2.50;;;5.20;99.90;;;;;;4942231;28;20082;-87